Terminal Aerodrome Forecast
Issued by NWS San Angelo, TX

Current Version | Previous Version | Text Only | Print | Product List | Glossary Off
Versions: 1 2 3 4 5 6 7 8 9 10 11 12 13 14 15 16 17 18 19

000
FTUS44 KSJT 042331
TAFSJT
TAF
KSJT 042331Z 0500/0524 14006KT P6SM SCT100
     FM050100 15006KT P6SM SCT250
     FM051300 17005KT P6SM SCT020
     FM051515 18008KT P6SM SKC
     FM051700 18009KT P6SM SCT060=

USA.gov is the U.S. government's official web portal to all federal, state and local government web resources and services.